createdAt,value
2023-04-12T00:01:08.677Z,20.9
2023-04-12T00:02:52.378Z,20.9
2023-04-12T00:04:36.080Z,20.9
2023-04-12T00:06:19.793Z,20.9
2023-04-12T00:08:03.503Z,20.9
2023-04-12T00:09:47.253Z,20.9
2023-04-12T00:11:30.903Z,20.9
2023-04-12T00:13:14.603Z,20.9
2023-04-12T00:14:58.307Z,20.9
2023-04-12T00:16:42.055Z,20.9
2023-04-12T00:18:25.705Z,20.9
2023-04-12T00:20:09.418Z,20.9
2023-04-12T00:21:53.109Z,20.9
2023-04-12T00:23:36.820Z,20.9
2023-04-12T00:25:20.520Z,20.9
2023-04-12T00:27:04.231Z,20.9
2023-04-12T00:28:47.974Z,20.9
2023-04-12T00:30:31.627Z,20.9
2023-04-12T00:32:15.332Z,20.9
2023-04-12T00:33:59.098Z,20.9
2023-04-12T00:35:42.916Z,20.9
2023-04-12T00:37:26.437Z,20.9
2023-04-12T00:39:10.142Z,20.9
2023-04-12T00:40:53.833Z,20.9
2023-04-12T00:42:37.600Z,20.9
2023-04-12T00:44:21.314Z,20.9
2023-04-12T00:46:04.944Z,20.9
2023-04-12T00:47:48.649Z,20.9
2023-04-12T00:49:32.357Z,20.9
2023-04-12T00:51:16.063Z,20.9
2023-04-12T00:52:59.769Z,20.9
2023-04-12T00:54:43.493Z,20.9
2023-04-12T00:56:27.173Z,20.9
2023-04-12T00:58:10.874Z,20.9
2023-04-12T00:59:54.584Z,20.9
2023-04-12T01:01:38.360Z,20.9
2023-04-12T01:03:21.973Z,20.9
2023-04-12T01:05:05.676Z,20.9
2023-04-12T01:06:49.381Z,20.9
2023-04-12T01:08:33.115Z,20.9
2023-04-12T01:10:16.784Z,20.9
2023-04-12T01:12:00.492Z,20.9
2023-04-12T01:13:44.282Z,20.9
2023-04-12T01:15:27.928Z,20.9
2023-04-12T01:17:11.604Z,20.9
2023-04-12T01:18:55.371Z,20.9
2023-04-12T01:20:38.997Z,20.9
2023-04-12T01:22:22.709Z,20.9
2023-04-12T01:24:06.485Z,20.9
2023-04-12T01:25:50.200Z,20.9
2023-04-12T01:27:33.823Z,20.9
2023-04-12T01:29:17.514Z,20.9
2023-04-12T01:31:01.223Z,20.9
2023-04-12T01:32:44.911Z,20.9
2023-04-12T01:34:28.649Z,20.9
2023-04-12T01:36:12.362Z,20.9
2023-04-12T01:37:56.025Z,20.9
2023-04-12T01:39:39.946Z,20.9
2023-04-12T01:41:23.446Z,20.9
2023-04-12T01:43:07.145Z,20.9
2023-04-12T01:44:50.959Z,20.9
2023-04-12T01:46:34.536Z,20.9
2023-04-12T01:48:18.277Z,20.9
2023-04-12T01:50:01.945Z,20.9
2023-04-12T01:51:45.646Z,20.9
2023-04-12T01:53:29.353Z,20.9
2023-04-12T01:55:13.145Z,20.9
2023-04-12T01:56:56.794Z,20.9
2023-04-12T01:58:40.497Z,20.9
2023-04-12T02:00:24.158Z,20.9
2023-04-12T02:02:07.873Z,20.9
2023-04-12T02:03:51.688Z,20.9
2023-04-12T02:05:35.270Z,20.9
2023-04-12T02:07:19.127Z,20.9
2023-04-12T02:09:02.676Z,20.9
2023-04-12T02:10:46.397Z,20.9
2023-04-12T02:12:30.102Z,20.9
2023-04-12T02:14:13.857Z,20.9
2023-04-12T02:15:57.482Z,20.9
2023-04-12T02:17:41.206Z,20.9
2023-04-12T02:19:24.897Z,20.9
2023-04-12T02:21:08.604Z,20.9
2023-04-12T02:22:52.294Z,20.9
2023-04-12T02:24:36.120Z,20.9
2023-04-12T02:26:19.709Z,20.9
2023-04-12T02:28:03.428Z,20.9
2023-04-12T02:29:47.154Z,20.9
2023-04-12T02:31:30.813Z,20.9
2023-04-12T02:33:14.510Z,20.9
2023-04-12T02:34:58.225Z,20.9
2023-04-12T02:36:41.932Z,20.9
2023-04-12T02:38:25.656Z,20.9
2023-04-12T02:40:09.329Z,20.9
2023-04-12T02:41:53.063Z,20.9
2023-04-12T02:43:36.742Z,20.9
2023-04-12T02:45:20.432Z,20.9
2023-04-12T02:47:04.120Z,20.9
2023-04-12T02:48:47.829Z,20.9
2023-04-12T02:50:31.544Z,20.9
2023-04-12T02:52:15.238Z,20.9
2023-04-12T02:53:58.954Z,20.9
2023-04-12T02:55:42.646Z,20.9
2023-04-12T02:57:26.344Z,20.9
2023-04-12T02:59:10.064Z,20.9
2023-04-12T03:00:53.921Z,20.9
2023-04-12T03:02:37.465Z,20.9
2023-04-12T03:04:21.239Z,20.9
2023-04-12T03:06:04.868Z,20.9
2023-04-12T03:07:48.641Z,20.9
2023-04-12T03:09:32.263Z,20.9
2023-04-12T03:11:15.971Z,20.9
2023-04-12T03:12:59.704Z,20.9
2023-04-12T03:14:43.563Z,20.9
2023-04-12T03:16:27.092Z,20.9
2023-04-12T03:18:10.780Z,20.9
2023-04-12T03:19:54.488Z,20.9
2023-04-12T03:21:38.300Z,20.9
2023-04-12T03:23:21.908Z,20.9
2023-04-12T03:25:05.583Z,20.9
2023-04-12T03:26:49.323Z,20.9
2023-04-12T03:28:32.997Z,20.9
2023-04-12T03:30:16.713Z,20.9
2023-04-12T03:32:00.405Z,20.9
2023-04-12T03:33:44.166Z,20.9
2023-04-12T03:35:27.849Z,20.9
2023-04-12T03:37:11.519Z,20.9
2023-04-12T03:38:55.214Z,20.9
2023-04-12T03:40:39.014Z,20.9
2023-04-12T03:42:22.619Z,20.9
2023-04-12T03:44:06.321Z,20.9
2023-04-12T03:45:50.027Z,20.9
2023-04-12T03:47:33.755Z,20.9
2023-04-12T03:49:17.431Z,20.9
2023-04-12T03:51:01.183Z,20.9
2023-04-12T03:52:44.931Z,20.8
2023-04-12T03:54:28.536Z,20.9
2023-04-12T03:56:12.243Z,20.9
2023-04-12T03:57:55.946Z,20.8
2023-04-12T03:59:39.642Z,20.8
2023-04-12T04:01:23.341Z,20.8
2023-04-12T04:03:07.055Z,20.8
2023-04-12T04:04:50.754Z,20.8
2023-04-12T04:06:34.457Z,20.8
2023-04-12T04:08:18.250Z,20.8
2023-04-12T04:10:01.877Z,20.8
2023-04-12T04:11:45.563Z,20.8
2023-04-12T04:13:29.306Z,20.8
2023-04-12T04:15:13.031Z,20.8
2023-04-12T04:16:56.675Z,20.8
2023-04-12T04:18:40.373Z,20.8
2023-04-12T04:20:24.092Z,20.8
2023-04-12T04:22:07.783Z,20.8
2023-04-12T04:23:51.553Z,20.8
2023-04-12T04:25:35.188Z,20.8
2023-04-12T04:27:18.885Z,20.8
2023-04-12T04:29:02.624Z,20.8
2023-04-12T04:30:46.312Z,20.8
2023-04-12T04:32:30.003Z,20.8
2023-04-12T04:34:13.773Z,20.8
2023-04-12T04:35:57.451Z,20.8
2023-04-12T04:37:41.127Z,20.8
2023-04-12T04:39:24.844Z,20.8
2023-04-12T04:41:08.548Z,20.8
2023-04-12T04:42:52.237Z,20.8
2023-04-12T04:44:35.930Z,20.8
2023-04-12T04:46:19.603Z,20.8
2023-04-12T04:48:03.325Z,20.8
2023-04-12T04:49:47.047Z,20.8
2023-04-12T04:51:30.709Z,20.8
2023-04-12T04:53:14.417Z,20.8
2023-04-12T04:54:58.140Z,20.8
2023-04-12T04:56:41.859Z,20.8
2023-04-12T04:58:25.554Z,20.8
2023-04-12T05:00:09.232Z,20.8
2023-04-12T05:01:52.938Z,20.8
2023-04-12T05:03:36.646Z,20.8
2023-04-12T05:05:20.344Z,20.8
2023-04-12T05:07:04.041Z,20.8
2023-04-12T05:08:47.789Z,20.8
2023-04-12T05:10:31.468Z,20.8
2023-04-12T05:12:15.171Z,20.8
2023-04-12T05:13:59.010Z,20.8
2023-04-12T05:15:42.573Z,20.8
2023-04-12T05:17:26.281Z,20.8
2023-04-12T05:19:09.963Z,20.8
2023-04-12T05:20:53.740Z,20.8
2023-04-12T05:22:37.461Z,20.8
2023-04-12T05:24:21.135Z,20.8
2023-04-12T05:26:04.778Z,20.8
2023-04-12T05:27:48.542Z,20.8
2023-04-12T05:29:32.195Z,20.8
2023-04-12T05:31:15.892Z,20.8
2023-04-12T05:32:59.613Z,20.8
2023-04-12T05:34:43.290Z,20.8
2023-04-12T05:36:27.009Z,20.8
2023-04-12T05:38:10.711Z,20.8
2023-04-12T05:39:54.430Z,20.8
2023-04-12T05:41:38.157Z,20.8
2023-04-12T05:43:21.814Z,20.8
2023-04-12T05:45:05.519Z,20.8
2023-04-12T05:46:49.221Z,20.8
2023-04-12T05:48:32.926Z,20.8
2023-04-12T05:50:16.656Z,20.8
2023-04-12T05:52:00.439Z,20.8
2023-04-12T05:53:44.043Z,20.8
2023-04-12T05:55:27.726Z,20.8
2023-04-12T05:57:11.445Z,20.8
2023-04-12T05:58:55.198Z,20.8
2023-04-12T06:00:38.833Z,20.8
2023-04-12T06:02:22.540Z,20.8
2023-04-12T06:04:06.251Z,20.8
2023-04-12T06:05:49.953Z,20.8
2023-04-12T06:07:33.665Z,20.8
2023-04-12T06:09:17.369Z,20.8
2023-04-12T06:11:01.112Z,20.8
2023-04-12T06:12:44.780Z,20.8
2023-04-12T06:14:28.474Z,20.8
2023-04-12T06:16:12.222Z,20.8
2023-04-12T06:17:55.991Z,20.8
2023-04-12T06:19:39.575Z,20.8
2023-04-12T06:21:23.283Z,20.8
2023-04-12T06:23:06.991Z,20.8
2023-04-12T06:24:50.684Z,20.8
2023-04-12T06:26:34.386Z,20.8
2023-04-12T06:28:18.109Z,20.8
2023-04-12T06:30:01.798Z,20.8
2023-04-12T06:31:45.586Z,20.8
2023-04-12T06:33:29.205Z,20.8
2023-04-12T06:35:12.917Z,20.8
2023-04-12T06:36:56.607Z,20.8
2023-04-12T06:38:40.295Z,20.8
2023-04-12T06:40:24.045Z,20.8
2023-04-12T06:42:07.715Z,20.8
2023-04-12T06:43:51.600Z,20.8
2023-04-12T06:45:35.129Z,20.8
2023-04-12T06:47:18.805Z,20.8
2023-04-12T06:49:02.526Z,20.8
2023-04-12T06:50:46.212Z,20.8
2023-04-12T06:52:30.014Z,20.8
2023-04-12T06:54:13.645Z,20.7
2023-04-12T06:55:57.459Z,20.7
2023-04-12T06:57:41.099Z,20.8
2023-04-12T06:59:24.718Z,20.8
2023-04-12T07:01:08.559Z,20.8
2023-04-12T07:02:52.192Z,20.8
2023-04-12T07:04:35.965Z,20.8
2023-04-12T07:06:19.537Z,20.8
2023-04-12T07:08:03.319Z,20.8
2023-04-12T07:09:47.107Z,20.8
2023-04-12T07:11:30.655Z,20.8
2023-04-12T07:13:14.471Z,20.9
2023-04-12T07:14:58.071Z,20.9
2023-04-12T07:16:41.759Z,20.9
2023-04-12T07:18:25.462Z,20.9
2023-04-12T07:20:09.259Z,20.9
2023-04-12T07:21:52.873Z,20.9
2023-04-12T07:23:36.621Z,20.9
2023-04-12T07:25:20.267Z,20.9
2023-04-12T07:27:04.006Z,20.9
2023-04-12T07:28:47.815Z,20.9
2023-04-12T07:30:31.370Z,20.9
2023-04-12T07:32:15.081Z,20.9
2023-04-12T07:33:58.839Z,20.8
2023-04-12T07:35:42.564Z,20.9
2023-04-12T07:37:26.244Z,20.8
2023-04-12T07:39:09.956Z,20.9
2023-04-12T07:40:53.619Z,20.8
2023-04-12T07:42:37.298Z,20.8
2023-04-12T07:44:20.988Z,20.8
2023-04-12T07:46:04.689Z,20.8
2023-04-12T07:47:48.403Z,20.9
2023-04-12T07:49:32.110Z,20.8
2023-04-12T07:51:15.806Z,20.8
2023-04-12T07:52:59.515Z,20.8
2023-04-12T07:54:43.326Z,20.8
2023-04-12T07:56:27.131Z,20.9
2023-04-12T07:58:10.648Z,20.8
2023-04-12T07:59:54.349Z,20.8
2023-04-12T08:01:38.063Z,20.8
2023-04-12T08:03:21.746Z,20.8
2023-04-12T08:05:05.493Z,20.8
2023-04-12T08:06:49.225Z,20.9
2023-04-12T08:08:32.917Z,20.9
2023-04-12T08:10:16.579Z,20.9
2023-04-12T08:12:00.247Z,20.9
2023-04-12T08:13:44.062Z,20.8
2023-04-12T08:17:11.363Z,20.8
2023-04-12T08:18:55.059Z,20.8
2023-04-12T08:20:38.864Z,20.9
2023-04-12T08:22:22.519Z,20.9
2023-04-12T08:24:06.165Z,20.8
2023-04-12T08:25:49.848Z,20.8
2023-04-12T08:27:33.567Z,20.8
2023-04-12T08:29:17.262Z,20.9
2023-04-12T08:31:01.013Z,20.8
2023-04-12T08:32:44.675Z,20.8
2023-04-12T08:34:28.402Z,20.8
2023-04-12T08:36:12.100Z,20.8
2023-04-12T08:37:55.776Z,20.8
2023-04-12T08:39:39.472Z,20.8
2023-04-12T08:41:23.425Z,20.8
2023-04-12T08:43:07.021Z,20.8
2023-04-12T08:44:50.686Z,20.8
2023-04-12T08:46:34.414Z,20.8
2023-04-12T08:48:18.009Z,20.8
2023-04-12T08:50:01.743Z,20.8
2023-04-12T08:51:45.529Z,20.8
2023-04-12T08:53:29.103Z,20.8
2023-04-12T08:55:12.827Z,20.8
2023-04-12T08:56:56.510Z,20.8
2023-04-12T08:58:40.219Z,20.8
2023-04-12T09:00:23.906Z,20.8
2023-04-12T09:03:51.365Z,20.8
2023-04-12T09:05:35.022Z,20.8
2023-04-12T09:07:18.717Z,20.8
2023-04-12T09:09:02.457Z,20.8
2023-04-12T09:10:46.130Z,20.8
2023-04-12T09:12:29.948Z,20.8
2023-04-12T09:14:13.534Z,20.8
2023-04-12T09:15:57.368Z,20.8
2023-04-12T09:17:40.930Z,20.8
2023-04-12T09:19:24.784Z,20.8
2023-04-12T09:21:08.406Z,20.8
2023-04-12T09:22:52.110Z,20.8
2023-04-12T09:24:35.813Z,20.8
2023-04-12T09:26:19.564Z,20.8
2023-04-12T09:28:03.256Z,20.9
2023-04-12T09:29:46.864Z,20.9
2023-04-12T09:31:30.549Z,20.9
2023-04-12T09:33:14.321Z,20.9
2023-04-12T09:34:58.030Z,20.9
2023-04-12T09:36:41.778Z,20.9
2023-04-12T09:38:25.513Z,20.9
2023-04-12T09:40:09.088Z,20.9
2023-04-12T09:41:52.783Z,20.9
2023-04-12T09:43:36.636Z,20.9
2023-04-12T09:45:20.174Z,20.9
2023-04-12T09:47:03.893Z,20.9
2023-04-12T09:48:47.586Z,20.9
2023-04-12T09:50:31.432Z,20.9
2023-04-12T09:52:14.999Z,20.9
2023-04-12T09:53:58.844Z,20.9
2023-04-12T09:55:42.423Z,20.9
2023-04-12T09:57:26.262Z,20.9
2023-04-12T09:59:09.850Z,20.9
2023-04-12T10:00:53.598Z,20.9
2023-04-12T10:02:37.245Z,20.9
2023-04-12T10:04:20.972Z,20.9
2023-04-12T10:06:04.691Z,20.9
2023-04-12T10:07:48.347Z,20.9
2023-04-12T10:09:32.065Z,20.9
2023-04-12T10:11:15.872Z,21
2023-04-12T10:12:59.509Z,21
2023-04-12T10:14:43.310Z,21
2023-04-12T10:16:26.803Z,21
2023-04-12T10:18:10.544Z,21
2023-04-12T10:19:54.242Z,21
2023-04-12T10:21:37.913Z,21
2023-04-12T10:23:21.645Z,21
2023-04-12T10:25:05.327Z,21
2023-04-12T10:26:49.016Z,21
2023-04-12T10:28:32.757Z,21
2023-04-12T10:30:16.445Z,21
2023-04-12T10:32:00.151Z,21.1
2023-04-12T10:33:43.841Z,21.1
2023-04-12T10:35:27.668Z,21.1
2023-04-12T10:37:11.275Z,21.1
2023-04-12T10:38:55.118Z,21.1
2023-04-12T10:40:38.647Z,21.1
2023-04-12T10:42:22.415Z,21.1
2023-04-12T10:44:06.059Z,21.1
2023-04-12T10:45:49.768Z,21.1
2023-04-12T10:47:33.468Z,21.1
2023-04-12T10:49:17.268Z,21.1
2023-04-12T10:51:00.869Z,21.1
2023-04-12T10:52:44.571Z,21.1
2023-04-12T10:54:28.269Z,21.2
2023-04-12T10:56:11.973Z,21.2
2023-04-12T10:57:55.792Z,21.2
2023-04-12T10:59:39.501Z,21.2
2023-04-12T11:01:23.083Z,21.2
2023-04-12T11:03:06.779Z,21.2
2023-04-12T11:04:50.484Z,21.2
2023-04-12T11:06:34.201Z,21.2
2023-04-12T11:08:17.978Z,21.2
2023-04-12T11:10:01.589Z,21.2
2023-04-12T11:11:45.299Z,21.2
2023-04-12T11:13:28.995Z,21.3
2023-04-12T11:15:12.699Z,21.3
2023-04-12T11:16:56.398Z,21.3
2023-04-12T11:18:40.158Z,21.3
2023-04-12T11:20:23.822Z,21.3
2023-04-12T11:22:07.509Z,21.3
2023-04-12T11:23:51.336Z,21.3
2023-04-12T11:25:34.963Z,21.3
2023-04-12T11:27:18.618Z,21.3
2023-04-12T11:29:02.462Z,21.3
2023-04-12T11:30:46.016Z,21.3
2023-04-12T11:32:29.727Z,21.3
2023-04-12T11:34:13.421Z,21.3
2023-04-12T11:35:57.120Z,21.3
2023-04-12T11:37:40.867Z,21.3
2023-04-12T11:39:24.532Z,21.3
2023-04-12T11:41:08.313Z,21.3
2023-04-12T11:42:51.959Z,21.3
2023-04-12T11:44:35.639Z,21.3
2023-04-12T11:46:19.352Z,21.3
2023-04-12T11:48:03.059Z,21.3
2023-04-12T11:49:46.754Z,21.3
2023-04-12T11:51:30.485Z,21.3
2023-04-12T11:53:14.160Z,21.3
2023-04-12T11:54:57.858Z,21.3
2023-04-12T11:56:41.561Z,21.3
2023-04-12T11:58:25.270Z,21.3
2023-04-12T12:00:08.961Z,21.3
2023-04-12T12:01:52.686Z,21.3
2023-04-12T12:03:36.370Z,21.3
2023-04-12T12:05:20.076Z,21.3
2023-04-12T12:07:03.778Z,21.3
2023-04-12T12:08:47.476Z,21.3
2023-04-12T12:10:31.182Z,21.3
2023-04-12T12:12:14.881Z,21.3
2023-04-12T12:13:58.706Z,21.3
2023-04-12T12:15:42.438Z,21.3
2023-04-12T12:17:25.998Z,21.3
2023-04-12T12:19:09.827Z,21.3
2023-04-12T12:20:53.531Z,21.3
2023-04-12T12:22:37.115Z,21.3
2023-04-12T12:24:20.977Z,21.3
2023-04-12T12:26:04.580Z,21.3
2023-04-12T12:27:48.239Z,21.3
2023-04-12T12:29:31.925Z,21.3
2023-04-12T12:31:15.607Z,21.3
2023-04-12T12:32:59.331Z,21.3
2023-04-12T12:34:43.018Z,21.3
2023-04-12T12:36:26.727Z,21.3
2023-04-12T12:38:10.429Z,21.3
2023-04-12T12:39:54.183Z,21.3
2023-04-12T12:41:37.903Z,21.4
2023-04-12T12:43:21.536Z,21.4
2023-04-12T12:45:05.353Z,21.4
2023-04-12T12:46:48.933Z,21.4
2023-04-12T12:48:32.656Z,21.4
2023-04-12T12:52:00.181Z,21.4
2023-04-12T12:53:43.789Z,21.4
2023-04-12T12:55:27.571Z,21.3
2023-04-12T12:57:11.221Z,21.3
2023-04-12T12:58:55.017Z,21.3
2023-04-12T13:00:38.574Z,21.3
2023-04-12T13:02:22.392Z,21.3
2023-04-12T13:04:06.003Z,21.3
2023-04-12T13:05:49.662Z,21.3
2023-04-12T13:07:33.376Z,21.3
2023-04-12T13:09:17.243Z,21.3
2023-04-12T13:11:00.856Z,21.3
2023-04-12T13:12:44.484Z,21.3
2023-04-12T13:14:28.223Z,21.3
2023-04-12T13:16:12.055Z,21.3
2023-04-12T13:17:55.698Z,21.3
2023-04-12T13:19:39.322Z,21.3
2023-04-12T13:21:23.048Z,21.3
2023-04-12T13:23:06.831Z,21.3
2023-04-12T13:26:34.099Z,21.2
2023-04-12T13:28:17.859Z,21.2
2023-04-12T13:30:01.665Z,21.2
2023-04-12T13:31:45.200Z,21.2
2023-04-12T13:33:28.916Z,21.2
2023-04-12T13:35:12.614Z,21.2
2023-04-12T13:36:56.378Z,21.2
2023-04-12T13:38:40.065Z,21.2
2023-04-12T13:42:07.413Z,21.3
2023-04-12T13:43:51.208Z,21.3
2023-04-12T13:45:34.818Z,21.3
2023-04-12T13:47:18.546Z,21.3
2023-04-12T13:49:02.236Z,21.3
2023-04-12T13:50:46.016Z,21.3
2023-04-12T13:52:29.640Z,21.3
2023-04-12T13:54:13.348Z,21.3
2023-04-12T13:55:57.049Z,21.2
2023-04-12T13:57:40.834Z,21.2
2023-04-12T13:59:24.509Z,21.2
2023-04-12T14:01:08.152Z,21.2
2023-04-12T14:02:51.850Z,21.2
2023-04-12T14:06:19.269Z,21.2
2023-04-12T14:08:02.954Z,21.2
2023-04-12T14:09:46.662Z,21.2
2023-04-12T14:11:30.392Z,21.2
2023-04-12T14:13:14.076Z,21.2
2023-04-12T14:14:57.816Z,21.2
2023-04-12T14:16:41.474Z,21.2
2023-04-12T14:18:25.165Z,21.2
2023-04-12T14:20:08.962Z,21.2
2023-04-12T14:23:36.266Z,21.2
2023-04-12T14:25:20.063Z,21.2
2023-04-12T14:27:03.753Z,21.2
2023-04-12T14:28:47.488Z,21.2
2023-04-12T14:30:31.091Z,21.2
2023-04-12T14:32:14.875Z,21.2
2023-04-12T14:33:58.669Z,21.2
2023-04-12T14:35:42.298Z,21.3
2023-04-12T14:37:25.971Z,21.3
2023-04-12T14:39:09.717Z,21.3
2023-04-12T14:40:53.414Z,21.3
2023-04-12T14:42:37.000Z,21.3
2023-04-12T14:44:20.798Z,21.3
2023-04-12T14:46:04.473Z,21.3
2023-04-12T14:47:48.128Z,21.3
2023-04-12T14:49:31.950Z,21.3
2023-04-12T14:51:15.665Z,21.3
2023-04-12T14:52:59.240Z,21.3
2023-04-12T14:54:43.079Z,21.3
2023-04-12T14:56:26.744Z,21.3
2023-04-12T14:58:10.334Z,21.2
2023-04-12T14:59:54.059Z,21.2
2023-04-12T15:01:37.794Z,21.2
2023-04-12T15:03:21.449Z,21.2
2023-04-12T15:05:05.145Z,21.2
2023-04-12T15:06:48.988Z,21.2
2023-04-12T15:08:32.573Z,21.2
2023-04-12T15:11:59.961Z,21.2
2023-04-12T15:13:43.743Z,21.2
2023-04-12T15:15:27.362Z,21.2
2023-04-12T15:17:11.077Z,21.2
2023-04-12T15:18:54.789Z,21.1
2023-04-12T15:20:38.485Z,21.1
2023-04-12T15:22:22.178Z,21.1
2023-04-12T15:24:05.876Z,21.1
2023-04-12T15:25:49.594Z,21.1
2023-04-12T15:27:33.286Z,21.1
2023-04-12T15:29:17.095Z,21.1
2023-04-12T15:31:00.723Z,21.1
2023-04-12T15:32:44.421Z,21.1
2023-04-12T15:34:28.098Z,21.1
2023-04-12T15:36:11.810Z,21.1
2023-04-12T15:37:55.503Z,21.1
2023-04-12T15:39:39.211Z,21.1
2023-04-12T15:41:22.912Z,21.1
2023-04-12T15:43:06.621Z,21.1
2023-04-12T15:44:50.317Z,21.1
2023-04-12T15:46:34.016Z,21.1
2023-04-12T15:48:17.737Z,21.1
2023-04-12T15:50:01.426Z,21.1
2023-04-12T15:51:45.130Z,21.1
2023-04-12T15:53:28.837Z,21.1
2023-04-12T15:55:12.536Z,21.1
2023-04-12T15:56:56.255Z,21.1
2023-04-12T15:58:39.990Z,21.1
2023-04-12T16:00:23.764Z,21.2
2023-04-12T16:02:07.352Z,21.2
2023-04-12T16:03:51.042Z,21.2
2023-04-12T16:05:34.750Z,21.1
2023-04-12T16:07:18.449Z,20.8
2023-04-12T16:09:02.156Z,20.7
2023-04-12T16:10:45.963Z,20.6
2023-04-12T16:12:29.564Z,20.7
2023-04-12T16:14:13.257Z,20.8
2023-04-12T16:15:56.985Z,20.9
2023-04-12T16:17:40.673Z,20.9
2023-04-12T16:19:24.367Z,20.9
2023-04-12T16:21:08.071Z,21
2023-04-12T16:22:51.775Z,21
2023-04-12T16:24:35.482Z,21
2023-04-12T16:26:19.189Z,21
2023-04-12T16:28:02.900Z,21
2023-04-12T16:29:46.591Z,21
2023-04-12T16:31:30.342Z,21.1
2023-04-12T16:33:13.998Z,21.1
2023-04-12T16:34:57.697Z,21.1
2023-04-12T16:36:41.420Z,21.1
2023-04-12T16:38:25.135Z,21.1
2023-04-12T16:40:08.801Z,21.1
2023-04-12T16:41:52.506Z,21.1
2023-04-12T16:43:36.220Z,21.1
2023-04-12T16:45:19.914Z,21
2023-04-12T16:47:03.680Z,21
2023-04-12T16:48:47.413Z,21
2023-04-12T16:50:31.083Z,21
2023-04-12T16:52:14.751Z,21
2023-04-12T16:53:58.433Z,21
2023-04-12T16:55:42.260Z,21
2023-04-12T16:57:25.966Z,21
2023-04-12T16:59:09.574Z,21
2023-04-12T17:00:53.398Z,21
2023-04-12T17:02:37.206Z,21
2023-04-12T17:04:20.817Z,21
2023-04-12T17:06:04.552Z,21
2023-04-12T17:07:48.218Z,21
2023-04-12T17:09:31.895Z,21
2023-04-12T17:11:15.456Z,21
2023-04-12T17:12:59.228Z,21
2023-04-12T17:14:42.849Z,21
2023-04-12T17:16:26.557Z,21
2023-04-12T17:18:10.280Z,20.9
2023-04-12T17:19:53.955Z,21
2023-04-12T17:21:37.801Z,21
2023-04-12T17:23:21.374Z,21
2023-04-12T17:25:05.183Z,20.9
2023-04-12T17:26:48.824Z,20.9
2023-04-12T17:28:32.631Z,20.9
2023-04-12T17:30:16.178Z,20.9
2023-04-12T17:32:00.058Z,20.9
2023-04-12T17:33:43.598Z,20.9
2023-04-12T17:35:27.286Z,20.9
2023-04-12T17:37:10.988Z,20.9
2023-04-12T17:38:54.675Z,20.9
2023-04-12T17:40:38.389Z,20.9
2023-04-12T17:42:22.099Z,20.9
2023-04-12T17:44:05.798Z,20.9
2023-04-12T17:45:49.505Z,20.9
2023-04-12T17:47:33.202Z,20.9
2023-04-12T17:49:16.904Z,20.9
2023-04-12T17:51:00.607Z,20.9
2023-04-12T17:52:44.305Z,20.9
2023-04-12T17:54:28.021Z,20.9
2023-04-12T17:56:11.715Z,20.9
2023-04-12T17:57:55.420Z,20.9
2023-04-12T17:59:39.122Z,20.9
2023-04-12T18:01:22.820Z,20.9
2023-04-12T18:03:06.526Z,20.9
2023-04-12T18:04:50.244Z,21
2023-04-12T18:06:33.933Z,21
2023-04-12T18:08:17.634Z,21
2023-04-12T18:11:45.042Z,20.9
2023-04-12T18:13:28.752Z,20.9
2023-04-12T18:15:12.446Z,21
2023-04-12T18:16:56.167Z,21
2023-04-12T18:18:39.866Z,21
2023-04-12T18:20:23.545Z,21
2023-04-12T18:22:07.254Z,21
2023-04-12T18:23:51.120Z,21
2023-04-12T18:25:34.652Z,21
2023-04-12T18:27:18.360Z,21
2023-04-12T18:29:02.065Z,21
2023-04-12T18:30:45.779Z,21
2023-04-12T18:32:29.481Z,21
2023-04-12T18:34:13.159Z,21
2023-04-12T18:35:56.876Z,21
2023-04-12T18:37:40.584Z,21
2023-04-12T18:39:24.274Z,21
2023-04-12T18:41:07.982Z,21
2023-04-12T18:42:51.734Z,21
2023-04-12T18:44:35.406Z,21
2023-04-12T18:46:19.103Z,20.9
2023-04-12T18:48:02.797Z,20.7
2023-04-12T18:51:30.228Z,20.2
2023-04-12T18:53:13.898Z,20.3
2023-04-12T18:54:57.624Z,20.4
2023-04-12T18:56:41.416Z,20.5
2023-04-12T18:58:25.006Z,20.5
2023-04-12T19:00:08.747Z,20.6
2023-04-12T19:01:52.422Z,20.6
2023-04-12T19:03:36.127Z,20.6
2023-04-12T19:05:19.833Z,20.7
2023-04-12T19:07:03.527Z,20.7
2023-04-12T19:08:47.230Z,20.7
2023-04-12T19:10:30.949Z,20.8
2023-04-12T19:12:14.630Z,20.8
2023-04-12T19:13:58.338Z,20.8
2023-04-12T19:15:42.060Z,20.8
2023-04-12T19:19:09.456Z,20.9
2023-04-12T19:20:53.146Z,20.9
2023-04-12T19:22:36.856Z,20.9
2023-04-12T19:24:20.563Z,20.9
2023-04-12T19:26:04.254Z,20.9
2023-04-12T19:27:47.949Z,20.9
2023-04-12T19:29:31.668Z,20.9
2023-04-12T19:31:15.373Z,20.9
2023-04-12T19:32:59.072Z,20.9
2023-04-12T19:34:42.773Z,20.9
2023-04-12T19:36:26.477Z,20.9
2023-04-12T19:38:10.189Z,20.9
2023-04-12T19:39:53.867Z,20.9
2023-04-12T19:41:37.575Z,20.9
2023-04-12T19:43:21.303Z,20.9
2023-04-12T19:45:04.998Z,20.9
2023-04-12T19:46:48.697Z,20.9
2023-04-12T19:48:32.391Z,20.9
2023-04-12T19:50:16.095Z,20.9
2023-04-12T19:51:59.849Z,20.9
2023-04-12T19:53:43.490Z,20.9
2023-04-12T19:55:27.191Z,20.9
2023-04-12T19:57:10.905Z,20.9
2023-04-12T20:00:38.321Z,20.9
2023-04-12T20:04:05.701Z,20.9
2023-04-12T20:05:49.413Z,20.9
2023-04-12T20:07:33.117Z,20.9
2023-04-12T20:09:16.816Z,20.9
2023-04-12T20:11:00.526Z,20.9
2023-04-12T20:12:44.230Z,20.9
2023-04-12T20:14:27.922Z,20.9
2023-04-12T20:16:11.639Z,20.9
2023-04-12T20:17:55.324Z,20.9
2023-04-12T20:19:39.032Z,20.9
2023-04-12T20:21:22.741Z,20.9
2023-04-12T20:23:06.446Z,20.9
2023-04-12T20:24:50.153Z,20.9
2023-04-12T20:26:33.841Z,20.9
2023-04-12T20:28:17.640Z,20.8
2023-04-12T20:30:01.389Z,20.8
2023-04-12T20:31:45.084Z,20.8
2023-04-12T20:33:28.661Z,20.8
2023-04-12T20:35:12.362Z,20.8
2023-04-12T20:36:56.060Z,20.8
2023-04-12T20:38:39.769Z,20.8
2023-04-12T20:40:23.472Z,20.8
2023-04-12T20:42:07.168Z,20.8
2023-04-12T20:43:50.867Z,20.8
2023-04-12T20:45:34.567Z,20.7
2023-04-12T20:47:18.283Z,20.7
2023-04-12T20:49:01.984Z,20.7
2023-04-12T20:50:45.679Z,20.7
2023-04-12T20:52:29.388Z,20.7
2023-04-12T20:54:13.095Z,20.7
2023-04-12T20:55:56.786Z,20.7
2023-04-12T20:57:40.489Z,20.7
2023-04-12T20:59:24.218Z,20.7
2023-04-12T21:01:07.883Z,20.7
2023-04-12T21:02:51.600Z,20.7
2023-04-12T21:04:35.302Z,20.7
2023-04-12T21:06:19.006Z,20.7
2023-04-12T21:08:02.710Z,20.7
2023-04-12T21:09:46.407Z,20.7
2023-04-12T21:11:30.107Z,20.7
2023-04-12T21:13:13.820Z,20.7
2023-04-12T21:14:57.515Z,20.7
2023-04-12T21:16:41.218Z,20.7
2023-04-12T21:18:24.927Z,20.6
2023-04-12T21:20:08.624Z,20.7
2023-04-12T21:21:52.333Z,20.7
2023-04-12T21:23:36.030Z,20.7
2023-04-12T21:25:19.740Z,20.7
2023-04-12T21:27:03.440Z,20.7
2023-04-12T21:28:47.126Z,20.7
2023-04-12T21:30:30.841Z,20.7
2023-04-12T21:32:14.541Z,20.7
2023-04-12T21:33:58.241Z,20.7
2023-04-12T21:35:41.949Z,20.7
2023-04-12T21:37:25.649Z,20.8
2023-04-12T21:39:09.339Z,20.8
2023-04-12T21:40:53.050Z,20.7
2023-04-12T21:42:36.824Z,20.7
2023-04-12T21:44:20.464Z,20.7
2023-04-12T21:46:04.160Z,20.8
2023-04-12T21:47:47.862Z,20.7
2023-04-12T21:49:31.561Z,20.8
2023-04-12T21:51:15.272Z,20.7
2023-04-12T21:52:58.972Z,20.7
2023-04-12T21:54:42.672Z,20.7
2023-04-12T21:56:26.371Z,20.7
2023-04-12T21:58:10.080Z,20.7
2023-04-12T21:59:53.781Z,20.7
2023-04-12T22:01:37.473Z,20.8
2023-04-12T22:03:21.183Z,20.7
2023-04-12T22:05:04.890Z,20.8
2023-04-12T22:06:48.577Z,20.8
2023-04-12T22:08:32.288Z,20.8
2023-04-12T22:10:15.987Z,20.8
2023-04-12T22:11:59.694Z,20.8
2023-04-12T22:13:43.396Z,20.8
2023-04-12T22:15:27.090Z,20.8
2023-04-12T22:17:10.811Z,20.8
2023-04-12T22:18:54.498Z,20.7
2023-04-12T22:20:38.204Z,20.7
2023-04-12T22:22:21.912Z,20.7
2023-04-12T22:24:05.610Z,20.7
2023-04-12T22:25:49.316Z,20.7
2023-04-12T22:27:33.026Z,20.7
2023-04-12T22:29:16.711Z,20.7
2023-04-12T22:31:00.419Z,20.7
2023-04-12T22:32:44.125Z,20.8
2023-04-12T22:34:27.823Z,20.7
2023-04-12T22:36:11.520Z,20.8
2023-04-12T22:37:55.230Z,20.7
2023-04-12T22:39:38.931Z,20.7
2023-04-12T22:41:22.635Z,20.7
2023-04-12T22:43:06.331Z,20.7
2023-04-12T22:44:50.058Z,20.7
2023-04-12T22:46:33.745Z,20.7
2023-04-12T22:48:17.441Z,20.7
2023-04-12T22:50:01.152Z,20.7
2023-04-12T22:51:44.850Z,20.7
2023-04-12T22:53:28.534Z,20.7
2023-04-12T22:55:12.253Z,20.7
2023-04-12T22:56:55.961Z,20.7
2023-04-12T22:58:39.667Z,20.7
2023-04-12T23:00:23.369Z,20.7
2023-04-12T23:02:07.072Z,20.7
2023-04-12T23:03:50.859Z,20.7
2023-04-12T23:05:34.461Z,20.7
2023-04-12T23:07:18.169Z,20.7
2023-04-12T23:09:01.866Z,20.7
2023-04-12T23:10:45.598Z,20.7
2023-04-12T23:12:29.262Z,20.7
2023-04-12T23:14:12.979Z,20.7
2023-04-12T23:15:56.674Z,20.7
2023-04-12T23:17:40.384Z,20.7
2023-04-12T23:19:24.082Z,20.7
2023-04-12T23:21:07.784Z,20.7
2023-04-12T23:22:51.491Z,20.7
2023-04-12T23:24:35.221Z,20.7
2023-04-12T23:26:18.896Z,20.7
2023-04-12T23:28:02.588Z,20.7
2023-04-12T23:29:46.294Z,20.7